createdAt,value
2023-02-16T00:00:02.610Z,24.30
2023-02-16T00:01:03.031Z,24.70
2023-02-16T00:02:02.658Z,24.30
2023-02-16T00:03:02.568Z,24.90
2023-02-16T00:04:02.547Z,23.90
2023-02-16T00:05:02.509Z,24.10
2023-02-16T00:06:02.536Z,25.00
2023-02-16T00:07:02.496Z,24.30
2023-02-16T00:08:02.543Z,24.10
2023-02-16T00:09:02.491Z,25.00
2023-02-16T00:10:02.490Z,24.50
2023-02-16T00:11:02.780Z,23.70
2023-02-16T00:12:02.473Z,25.60
2023-02-16T00:13:02.429Z,25.00
2023-02-16T00:14:02.452Z,25.30
2023-02-16T00:15:02.460Z,24.20
2023-02-16T00:16:02.525Z,23.70
2023-02-16T00:17:02.395Z,24.10
2023-02-16T00:18:02.400Z,24.20
2023-02-16T00:19:02.377Z,25.30
2023-02-16T00:20:02.379Z,25.90
2023-02-16T00:21:02.820Z,24.50
2023-02-16T00:22:02.357Z,25.20
2023-02-16T00:23:02.332Z,24.60
2023-02-16T00:24:02.344Z,25.50
2023-02-16T00:25:02.314Z,24.60
2023-02-16T00:26:02.316Z,24.00
2023-02-16T00:27:02.301Z,23.90
2023-02-16T00:28:02.329Z,25.50
2023-02-16T00:29:02.264Z,25.40
2023-02-16T00:30:02.368Z,26.60
2023-02-16T00:31:02.672Z,26.70
2023-02-16T00:32:02.366Z,25.80
2023-02-16T00:33:02.274Z,27.10
2023-02-16T00:34:02.241Z,26.00
2023-02-16T00:35:02.292Z,25.90
2023-02-16T00:36:02.214Z,27.20
2023-02-16T00:37:02.211Z,26.60
2023-02-16T00:38:02.176Z,26.40
2023-02-16T00:39:02.215Z,24.90
2023-02-16T00:40:02.164Z,27.20
2023-02-16T00:41:02.464Z,25.30
2023-02-16T00:42:02.224Z,27.60
2023-02-16T00:43:02.146Z,27.10
2023-02-16T00:44:02.134Z,27.50
2023-02-16T00:45:02.142Z,26.60
2023-02-16T00:46:02.179Z,26.10
2023-02-16T00:47:02.251Z,26.90
2023-02-16T00:48:02.078Z,26.40
2023-02-16T00:49:02.116Z,26.40
2023-02-16T00:50:02.057Z,25.00
2023-02-16T00:51:02.609Z,25.80
2023-02-16T00:52:02.038Z,26.50
2023-02-16T00:53:02.041Z,26.50
2023-02-16T00:54:02.038Z,26.20
2023-02-16T00:55:02.039Z,25.80
2023-02-16T00:56:01.996Z,26.00
2023-02-16T00:57:02.058Z,27.40
2023-02-16T00:58:01.966Z,25.90
2023-02-16T00:59:01.996Z,26.40
2023-02-16T01:00:01.967Z,27.30
2023-02-16T01:01:02.457Z,26.60
2023-02-16T01:02:01.934Z,25.70
2023-02-16T01:03:01.959Z,28.30
2023-02-16T01:04:01.904Z,28.70
2023-02-16T01:05:01.918Z,28.70
2023-02-16T01:06:01.895Z,25.70
2023-02-16T01:07:01.913Z,26.40
2023-02-16T01:08:01.868Z,27.70
2023-02-16T01:09:01.930Z,27.30
2023-02-16T01:10:01.859Z,26.00
2023-02-16T01:11:02.275Z,25.80
2023-02-16T01:12:01.823Z,28.30
2023-02-16T01:13:01.832Z,25.90
2023-02-16T01:14:01.804Z,27.30
2023-02-16T01:15:01.861Z,26.80
2023-02-16T01:16:01.857Z,25.60
2023-02-16T01:17:01.792Z,27.80
2023-02-16T01:18:01.760Z,28.00
2023-02-16T01:19:01.774Z,27.40
2023-02-16T01:20:01.749Z,27.30
2023-02-16T01:21:02.098Z,27.70
2023-02-16T01:22:01.740Z,27.40
2023-02-16T01:23:01.728Z,27.80
2023-02-16T01:24:01.719Z,27.90
2023-02-16T01:25:01.710Z,26.70
2023-02-16T01:26:01.677Z,27.40
2023-02-16T01:27:01.708Z,27.00
2023-02-16T01:28:01.660Z,27.00
2023-02-16T01:29:01.664Z,27.40
2023-02-16T01:30:01.723Z,26.50
2023-02-16T01:31:02.086Z,25.80
2023-02-16T01:32:01.786Z,27.00
2023-02-16T01:33:01.649Z,28.10
2023-02-16T01:34:01.593Z,28.60
2023-02-16T01:35:01.621Z,27.20
2023-02-16T01:36:01.576Z,27.80
2023-02-16T01:37:01.596Z,26.10
2023-02-16T01:38:01.560Z,27.00
2023-02-16T01:39:01.579Z,27.50
2023-02-16T01:40:01.546Z,27.40
2023-02-16T01:41:01.887Z,25.90
2023-02-16T01:42:01.514Z,26.80
2023-02-16T01:43:01.545Z,26.80
2023-02-16T01:44:01.513Z,26.90
2023-02-16T01:45:01.524Z,26.60
2023-02-16T01:46:01.470Z,27.10
2023-02-16T01:47:01.480Z,27.60
2023-02-16T01:48:01.462Z,27.00
2023-02-16T01:49:01.465Z,27.70
2023-02-16T01:50:03.414Z,26.70
2023-02-16T01:51:01.848Z,26.70
2023-02-16T01:52:01.410Z,26.60
2023-02-16T01:53:01.425Z,27.90
2023-02-16T01:54:01.386Z,27.50
2023-02-16T01:55:01.413Z,26.60
2023-02-16T01:56:01.369Z,27.10
2023-02-16T01:57:01.408Z,27.50
2023-02-16T01:58:01.348Z,26.40
2023-02-16T01:59:01.369Z,27.80
2023-02-16T02:00:01.340Z,27.60
2023-02-16T02:01:01.464Z,28.00
2023-02-16T02:02:01.394Z,29.50
2023-02-16T02:03:01.382Z,26.60
2023-02-16T02:04:01.295Z,26.80
2023-02-16T02:05:01.300Z,27.80
2023-02-16T02:06:01.267Z,27.30
2023-02-16T02:07:01.279Z,27.60
2023-02-16T02:08:01.244Z,27.50
2023-02-16T02:09:01.276Z,26.20
2023-02-16T02:10:01.228Z,27.60
2023-02-16T02:11:01.521Z,28.30
2023-02-16T02:12:01.204Z,27.20
2023-02-16T02:13:01.310Z,27.50
2023-02-16T02:14:01.180Z,27.70
2023-02-16T02:15:01.217Z,28.00
2023-02-16T02:16:01.208Z,28.30
2023-02-16T02:17:01.205Z,28.00
2023-02-16T02:18:01.190Z,28.30
2023-02-16T02:19:01.151Z,27.80
2023-02-16T02:20:01.139Z,29.50
2023-02-16T02:21:01.273Z,28.20
2023-02-16T02:22:01.108Z,28.10
2023-02-16T02:23:01.120Z,28.60
2023-02-16T02:24:01.084Z,29.30
2023-02-16T02:25:01.091Z,29.10
2023-02-16T02:26:01.061Z,28.90
2023-02-16T02:27:01.095Z,27.30
2023-02-16T02:28:01.038Z,27.30
2023-02-16T02:29:01.049Z,28.90
2023-02-16T02:30:01.088Z,28.40
2023-02-16T02:31:01.140Z,26.30
2023-02-16T02:32:01.091Z,28.20
2023-02-16T02:33:01.025Z,26.60
2023-02-16T02:34:00.980Z,27.80
2023-02-16T02:35:00.986Z,30.60
2023-02-16T02:36:00.953Z,30.80
2023-02-16T02:37:00.967Z,30.70
2023-02-16T02:38:00.953Z,28.90
2023-02-16T02:39:00.988Z,29.30
2023-02-16T02:40:00.914Z,28.90
2023-02-16T02:41:01.094Z,26.10
2023-02-16T02:42:00.891Z,28.50
2023-02-16T02:43:00.908Z,27.70
2023-02-16T02:44:00.885Z,28.60
2023-02-16T02:45:00.910Z,29.40
2023-02-16T02:46:00.854Z,28.50
2023-02-16T02:47:00.869Z,30.30
2023-02-16T02:48:00.835Z,30.60
2023-02-16T02:49:00.852Z,28.20
2023-02-16T02:50:00.814Z,26.50
2023-02-16T02:51:00.840Z,26.70
2023-02-16T02:52:00.793Z,28.70
2023-02-16T02:53:00.812Z,31.10
2023-02-16T02:54:00.782Z,29.90
2023-02-16T02:55:00.797Z,28.80
2023-02-16T02:56:00.758Z,29.50
2023-02-16T02:57:00.776Z,30.70
2023-02-16T02:58:00.737Z,28.20
2023-02-16T02:59:00.752Z,25.50
2023-02-16T03:00:00.723Z,28.90
2023-02-16T03:01:00.783Z,29.30
2023-02-16T03:02:00.760Z,31.20
2023-02-16T03:03:00.716Z,31.50
2023-02-16T03:04:00.669Z,29.20
2023-02-16T03:05:00.678Z,29.40
2023-02-16T03:06:00.646Z,29.30
2023-02-16T03:07:00.669Z,28.90
2023-02-16T03:08:00.628Z,30.70
2023-02-16T03:09:00.663Z,28.30
2023-02-16T03:10:00.609Z,28.10
2023-02-16T03:11:00.650Z,28.20
2023-02-16T03:12:00.586Z,27.90
2023-02-16T03:13:00.599Z,29.00
2023-02-16T03:14:00.564Z,28.50
2023-02-16T03:15:00.594Z,29.40
2023-02-16T03:16:00.562Z,27.00
2023-02-16T03:17:00.558Z,28.40
2023-02-16T03:18:00.544Z,27.40
2023-02-16T03:19:00.551Z,27.80
2023-02-16T03:20:00.518Z,27.20
2023-02-16T03:21:00.664Z,27.40
2023-02-16T03:22:00.499Z,28.00
2023-02-16T03:23:00.503Z,26.90
2023-02-16T03:24:00.475Z,27.30
2023-02-16T03:25:00.471Z,27.60
2023-02-16T03:26:00.456Z,27.60
2023-02-16T03:27:00.467Z,29.00
2023-02-16T03:28:00.446Z,27.80
2023-02-16T03:29:00.434Z,28.20
2023-02-16T03:30:00.418Z,29.40
2023-02-16T03:31:00.423Z,28.40
2023-02-16T03:32:00.449Z,27.70
2023-02-16T03:33:00.409Z,27.90
2023-02-16T03:34:00.357Z,27.60
2023-02-16T03:35:00.373Z,28.80
2023-02-16T03:36:00.348Z,30.00
2023-02-16T03:37:00.363Z,29.80
2023-02-16T03:38:00.337Z,29.10
2023-02-16T03:39:00.360Z,28.90
2023-02-16T03:40:00.294Z,29.40
2023-02-16T03:41:00.303Z,29.00
2023-02-16T03:42:00.280Z,28.40
2023-02-16T03:43:00.284Z,29.10
2023-02-16T03:44:00.255Z,29.00
2023-02-16T03:45:00.282Z,29.20
2023-02-16T03:46:00.321Z,29.10
2023-02-16T03:47:00.241Z,30.10
2023-02-16T03:48:00.210Z,29.10
2023-02-16T03:49:00.238Z,30.10
2023-02-16T03:50:00.192Z,27.90
2023-02-16T03:51:00.220Z,29.50
2023-02-16T03:52:00.167Z,28.10
2023-02-16T03:53:00.184Z,28.20
2023-02-16T03:54:00.161Z,28.50
2023-02-16T03:55:00.169Z,30.40
2023-02-16T03:56:00.157Z,28.20
2023-02-16T03:57:00.167Z,28.60
2023-02-16T03:58:00.121Z,29.00
2023-02-16T03:59:00.129Z,29.40
2023-02-16T04:00:00.127Z,29.80
2023-02-16T04:01:00.115Z,28.70
2023-02-16T04:02:00.147Z,30.10
2023-02-16T04:03:00.116Z,31.00
2023-02-16T04:04:00.104Z,29.00
2023-02-16T04:05:00.079Z,27.70
2023-02-16T04:06:00.046Z,29.30
2023-02-16T04:07:00.042Z,30.00
2023-02-16T04:08:00.023Z,28.10
2023-02-16T04:09:00.046Z,29.30
2023-02-16T04:09:59.996Z,29.80
2023-02-16T04:10:59.999Z,30.00
2023-02-16T04:12:00.007Z,29.60
2023-02-16T04:13:00.007Z,27.40
2023-02-16T04:13:59.953Z,30.40
2023-02-16T04:14:59.979Z,29.40
2023-02-16T04:15:59.955Z,29.60
2023-02-16T04:16:59.941Z,29.30
2023-02-16T04:17:59.924Z,29.10
2023-02-16T04:18:59.921Z,30.60
2023-02-16T04:19:59.889Z,30.00
2023-02-16T04:20:59.917Z,30.20
2023-02-16T04:21:59.868Z,29.00
2023-02-16T04:22:59.912Z,28.30
2023-02-16T04:23:59.859Z,29.60
2023-02-16T04:24:59.866Z,28.80
2023-02-16T04:25:59.853Z,28.70
2023-02-16T04:26:59.881Z,30.00
2023-02-16T04:27:59.808Z,28.60
2023-02-16T04:28:59.822Z,28.40
2023-02-16T04:29:59.835Z,28.30
2023-02-16T04:30:59.922Z,28.40
2023-02-16T04:31:59.912Z,28.40
2023-02-16T04:34:26.748Z,28.50
2023-02-16T04:34:31.600Z,27.50
2023-02-16T04:35:31.556Z,27.30
2023-02-16T04:36:31.613Z,28.90
2023-02-16T04:37:31.541Z,27.90
2023-02-16T04:38:31.578Z,28.40
2023-02-16T04:39:31.543Z,27.80
2023-02-16T04:40:31.530Z,29.00
2023-02-16T04:41:31.499Z,29.00
2023-02-16T04:42:31.510Z,28.60
2023-02-16T04:43:31.481Z,28.40
2023-02-16T04:44:31.517Z,28.50
2023-02-16T04:45:31.460Z,28.60
2023-02-16T04:46:31.462Z,28.50
2023-02-16T04:47:31.454Z,27.50
2023-02-16T04:48:31.426Z,27.80
2023-02-16T04:49:31.439Z,28.30
2023-02-16T04:50:31.429Z,27.10
2023-02-16T04:51:31.416Z,28.80
2023-02-16T04:52:31.393Z,28.60
2023-02-16T04:53:31.394Z,28.00
2023-02-16T04:54:31.373Z,27.50
2023-02-16T04:55:31.374Z,28.90
2023-02-16T04:56:31.381Z,29.40
2023-02-16T04:57:31.376Z,30.10
2023-02-16T04:58:31.326Z,29.00
2023-02-16T04:59:31.419Z,30.20
2023-02-16T05:00:31.304Z,29.10
2023-02-16T05:01:31.319Z,28.80
2023-02-16T05:02:31.291Z,28.70
2023-02-16T05:03:31.308Z,28.70
2023-02-16T05:04:31.319Z,28.50
2023-02-16T05:05:31.278Z,28.60
2023-02-16T05:06:31.240Z,28.10
2023-02-16T05:07:31.256Z,28.60
2023-02-16T05:08:31.257Z,28.20
2023-02-16T05:09:31.253Z,28.30
2023-02-16T05:10:31.196Z,28.50
2023-02-16T05:11:31.222Z,27.70
2023-02-16T05:12:31.191Z,29.00
2023-02-16T05:13:31.193Z,27.70
2023-02-16T05:14:31.383Z,29.50
2023-02-16T05:15:31.212Z,29.40
2023-02-16T05:16:31.168Z,29.80
2023-02-16T05:17:31.145Z,29.40
2023-02-16T05:18:31.135Z,28.80
2023-02-16T05:19:31.124Z,28.10
2023-02-16T05:20:31.108Z,29.60
2023-02-16T05:21:31.124Z,29.80
2023-02-16T05:22:31.075Z,29.60
2023-02-16T05:23:31.104Z,29.50
2023-02-16T05:24:31.063Z,29.40
2023-02-16T05:25:31.071Z,28.80
2023-02-16T05:26:31.046Z,27.90
2023-02-16T05:27:31.048Z,28.20
2023-02-16T05:28:31.110Z,27.30
2023-02-16T05:29:31.029Z,29.50
2023-02-16T05:30:31.079Z,27.50
2023-02-16T05:31:31.120Z,29.50
2023-02-16T05:32:30.997Z,30.50
2023-02-16T05:33:31.001Z,28.70
2023-02-16T05:34:30.954Z,28.60
2023-02-16T05:35:30.968Z,29.80
2023-02-16T05:36:30.928Z,28.40
2023-02-16T05:37:30.945Z,29.00
2023-02-16T05:38:30.946Z,28.90
2023-02-16T05:39:30.924Z,28.90
2023-02-16T05:40:30.893Z,28.20
2023-02-16T05:41:30.911Z,30.50
2023-02-16T05:42:30.881Z,29.80
2023-02-16T05:43:30.884Z,29.40
2023-02-16T05:44:30.881Z,29.50
2023-02-16T05:45:30.894Z,28.50
2023-02-16T05:46:30.873Z,29.70
2023-02-16T05:47:30.848Z,29.30
2023-02-16T05:48:30.814Z,28.40
2023-02-16T05:49:30.826Z,28.60
2023-02-16T05:50:30.816Z,30.70
2023-02-16T05:51:30.822Z,31.00
2023-02-16T05:52:30.783Z,30.50
2023-02-16T05:53:30.792Z,30.30
2023-02-16T05:54:30.752Z,29.10
2023-02-16T05:55:30.766Z,29.00
2023-02-16T05:56:30.777Z,32.00
2023-02-16T05:57:30.748Z,29.60
2023-02-16T05:58:30.718Z,30.10
2023-02-16T05:59:30.725Z,29.60
2023-02-16T06:00:30.702Z,30.40
2023-02-16T06:01:30.715Z,29.40
2023-02-16T06:02:30.794Z,30.20
2023-02-16T06:03:30.700Z,28.60
2023-02-16T06:04:30.648Z,28.60
2023-02-16T06:05:30.661Z,29.70
2023-02-16T06:06:30.630Z,29.10
2023-02-16T06:07:30.642Z,28.00
2023-02-16T06:08:30.648Z,29.90
2023-02-16T06:09:30.625Z,30.50
2023-02-16T06:10:30.585Z,28.80
2023-02-16T06:11:30.598Z,31.10
2023-02-16T06:12:30.564Z,29.60
2023-02-16T06:13:30.584Z,30.90
2023-02-16T06:14:30.567Z,31.20
2023-02-16T06:15:30.562Z,31.50
2023-02-16T06:16:30.540Z,29.90
2023-02-16T06:17:30.536Z,29.80
2023-02-16T06:18:30.502Z,30.80
2023-02-16T06:19:30.517Z,30.90
2023-02-16T06:20:30.507Z,29.30
2023-02-16T06:21:30.528Z,30.70
2023-02-16T06:22:30.462Z,32.80
2023-02-16T06:23:30.473Z,30.50
2023-02-16T06:24:30.470Z,32.30
2023-02-16T06:25:30.486Z,29.90
2023-02-16T06:26:30.438Z,29.90
2023-02-16T06:27:30.442Z,29.90
2023-02-16T06:28:30.404Z,30.10
2023-02-16T06:29:30.414Z,29.90
2023-02-16T06:30:30.426Z,31.60
2023-02-16T06:31:30.570Z,31.30
2023-02-16T06:32:30.440Z,29.80
2023-02-16T06:33:30.373Z,30.30
2023-02-16T06:34:30.346Z,31.90
2023-02-16T06:35:30.354Z,29.50
2023-02-16T06:36:30.318Z,30.50
2023-02-16T06:37:30.338Z,31.80
2023-02-16T06:38:30.318Z,32.50
2023-02-16T06:39:30.313Z,31.80
2023-02-16T06:40:30.279Z,30.70
2023-02-16T06:41:30.290Z,31.80
2023-02-16T06:42:30.260Z,31.20
2023-02-16T06:43:30.963Z,30.00
2023-02-16T06:44:30.263Z,29.30
2023-02-16T06:45:30.249Z,33.10
2023-02-16T06:46:30.368Z,31.10
2023-02-16T06:47:30.226Z,31.90
2023-02-16T06:48:30.193Z,30.60
2023-02-16T06:49:30.210Z,30.60
2023-02-16T06:50:30.187Z,32.30
2023-02-16T06:51:30.193Z,32.80
2023-02-16T06:52:30.159Z,31.90
2023-02-16T06:53:30.166Z,31.80
2023-02-16T06:54:30.133Z,30.20
2023-02-16T06:55:30.148Z,30.70
2023-02-16T06:56:30.130Z,31.20
2023-02-16T06:57:30.128Z,30.80
2023-02-16T06:58:30.095Z,31.90
2023-02-16T06:59:30.130Z,30.30
2023-02-16T07:00:30.218Z,31.50
2023-02-16T07:01:30.085Z,29.90
2023-02-16T07:02:30.115Z,29.60
2023-02-16T07:03:30.174Z,29.30
2023-02-16T07:04:30.032Z,30.10
2023-02-16T07:05:30.044Z,29.00
2023-02-16T07:06:30.009Z,28.50
2023-02-16T07:07:30.026Z,28.40
2023-02-16T07:08:30.011Z,28.60
2023-02-16T07:09:30.018Z,27.70
2023-02-16T07:10:43.669Z,27.80
2023-02-16T07:11:29.988Z,27.30
2023-02-16T07:12:29.953Z,28.10
2023-02-16T07:13:29.963Z,27.90
2023-02-16T07:14:29.942Z,26.50
2023-02-16T07:15:29.942Z,27.90
2023-02-16T07:16:30.027Z,27.80
2023-02-16T07:17:29.929Z,30.00
2023-02-16T07:18:29.893Z,27.70
2023-02-16T07:19:29.900Z,27.30
2023-02-16T07:20:29.897Z,26.70
2023-02-16T07:21:29.876Z,28.80
2023-02-16T07:22:29.851Z,27.70
2023-02-16T07:23:29.854Z,27.70
2023-02-16T07:24:29.828Z,30.70
2023-02-16T07:25:29.840Z,29.10
2023-02-16T07:26:29.829Z,28.10
2023-02-16T07:27:29.822Z,28.00
2023-02-16T07:28:29.783Z,29.20
2023-02-16T07:29:29.802Z,27.70
2023-02-16T07:30:29.919Z,27.00
2023-02-16T07:31:29.923Z,27.40
2023-02-16T07:32:29.869Z,27.50
2023-02-16T07:33:29.753Z,27.10
2023-02-16T07:34:29.723Z,28.30
2023-02-16T07:35:29.764Z,28.50
2023-02-16T07:36:29.699Z,27.50
2023-02-16T07:37:29.711Z,28.10
2023-02-16T07:38:29.701Z,27.10
2023-02-16T07:39:29.689Z,27.00
2023-02-16T07:40:29.658Z,26.40
2023-02-16T07:41:29.666Z,27.90
2023-02-16T07:42:29.637Z,28.40
2023-02-16T07:43:29.662Z,27.90
2023-02-16T07:44:29.642Z,28.20
2023-02-16T07:45:29.643Z,28.10
2023-02-16T07:46:31.628Z,27.30
2023-02-16T07:47:29.605Z,27.40
2023-02-16T07:48:29.578Z,27.70
2023-02-16T07:49:29.583Z,27.20
2023-02-16T07:50:29.595Z,26.70
2023-02-16T07:51:29.560Z,27.80
2023-02-16T07:52:29.526Z,28.20
2023-02-16T07:53:29.541Z,27.00
2023-02-16T07:54:29.507Z,28.20
2023-02-16T07:55:29.539Z,28.70
2023-02-16T07:56:29.547Z,27.40
2023-02-16T07:57:29.505Z,27.20
2023-02-16T07:58:29.462Z,28.60
2023-02-16T07:59:29.477Z,28.80
2023-02-16T08:00:29.454Z,28.10
2023-02-16T08:01:29.457Z,28.60
2023-02-16T08:02:29.587Z,28.30
2023-02-16T08:03:29.468Z,28.30
2023-02-16T08:04:29.415Z,28.20
2023-02-16T08:05:29.416Z,29.70
2023-02-16T08:06:29.379Z,28.90
2023-02-16T08:07:29.394Z,28.80
2023-02-16T08:08:29.383Z,29.70
2023-02-16T08:09:29.373Z,29.10
2023-02-16T08:10:29.342Z,28.70
2023-02-16T08:11:29.352Z,29.60
2023-02-16T08:12:29.322Z,27.60
2023-02-16T08:13:29.334Z,28.30
2023-02-16T08:14:29.326Z,27.80
2023-02-16T08:15:29.312Z,27.50
2023-02-16T08:16:29.327Z,27.10
2023-02-16T08:17:29.292Z,27.90
2023-02-16T08:18:29.260Z,28.30
2023-02-16T08:19:29.276Z,26.90
2023-02-16T08:20:48.230Z,27.80
2023-02-16T08:21:29.257Z,27.80
2023-02-16T08:22:29.226Z,27.40
2023-02-16T08:23:29.229Z,27.30
2023-02-16T08:24:29.195Z,27.10
2023-02-16T08:25:29.208Z,28.40
2023-02-16T08:26:29.218Z,26.80
2023-02-16T08:27:29.192Z,26.80
2023-02-16T08:28:29.275Z,27.70
2023-02-16T08:29:29.167Z,27.40
2023-02-16T08:30:29.258Z,26.80
2023-02-16T08:31:29.244Z,27.30
2023-02-16T08:32:29.154Z,27.00
2023-02-16T08:33:29.125Z,27.50
2023-02-16T08:34:29.095Z,27.80
2023-02-16T08:35:29.109Z,27.80
2023-02-16T08:36:29.074Z,27.60
2023-02-16T08:37:29.088Z,27.80
2023-02-16T08:38:29.064Z,27.30
2023-02-16T08:39:29.086Z,27.80
2023-02-16T08:40:29.033Z,27.20
2023-02-16T08:41:29.051Z,27.30
2023-02-16T08:42:29.009Z,28.00
2023-02-16T08:43:29.036Z,26.80
2023-02-16T08:44:29.072Z,28.10
2023-02-16T08:45:28.998Z,27.70
2023-02-16T08:46:29.009Z,27.50
2023-02-16T08:47:28.974Z,27.60
2023-02-16T08:48:28.948Z,26.70
2023-02-16T08:49:28.965Z,27.10
2023-02-16T08:50:28.942Z,27.80
2023-02-16T08:51:28.932Z,26.50
2023-02-16T08:52:28.898Z,27.40
2023-02-16T08:53:28.908Z,27.70
2023-02-16T08:54:28.885Z,27.50
2023-02-16T08:55:28.889Z,27.70
2023-02-16T08:56:28.877Z,26.70
2023-02-16T08:57:28.867Z,27.10
2023-02-16T08:58:28.840Z,26.30
2023-02-16T08:59:29.216Z,26.80
2023-02-16T09:00:28.812Z,28.40
2023-02-16T09:01:28.873Z,27.10
2023-02-16T09:02:28.856Z,26.70
2023-02-16T09:03:28.779Z,26.50
2023-02-16T09:04:28.803Z,26.30
2023-02-16T09:05:28.771Z,24.80
2023-02-16T09:06:28.780Z,26.30
2023-02-16T09:07:28.737Z,27.70
2023-02-16T09:08:28.773Z,26.20
2023-02-16T09:09:28.798Z,27.00
2023-02-16T09:10:28.725Z,26.90
2023-02-16T09:11:28.695Z,26.20
2023-02-16T09:12:28.707Z,25.90
2023-02-16T09:13:28.681Z,26.30
2023-02-16T09:14:28.717Z,27.10
2023-02-16T09:15:28.656Z,25.90
2023-02-16T09:16:28.696Z,27.80
2023-02-16T09:17:28.630Z,26.30
2023-02-16T09:18:28.644Z,26.40
2023-02-16T09:19:28.623Z,25.70
2023-02-16T09:20:28.647Z,25.20
2023-02-16T09:21:28.592Z,26.00
2023-02-16T09:22:28.604Z,26.00
2023-02-16T09:23:28.593Z,25.20
2023-02-16T09:24:28.578Z,26.10
2023-02-16T09:25:28.545Z,25.90
2023-02-16T09:26:28.584Z,26.30
2023-02-16T09:27:28.525Z,24.00
2023-02-16T09:28:28.537Z,26.20
2023-02-16T09:29:28.501Z,26.10
2023-02-16T09:30:28.566Z,24.40
2023-02-16T09:31:28.641Z,25.00
2023-02-16T09:32:28.523Z,24.10
2023-02-16T09:33:28.476Z,25.50
2023-02-16T09:34:28.471Z,25.30
2023-02-16T09:35:28.439Z,23.90
2023-02-16T09:36:28.462Z,25.50
2023-02-16T09:37:28.418Z,25.20
2023-02-16T09:38:28.460Z,25.30
2023-02-16T09:39:28.403Z,24.40
2023-02-16T09:40:28.411Z,24.50
2023-02-16T09:41:28.390Z,23.50
2023-02-16T09:42:28.390Z,23.60
2023-02-16T09:43:28.354Z,23.80
2023-02-16T09:44:28.392Z,23.30
2023-02-16T09:45:28.339Z,22.50
2023-02-16T09:46:28.405Z,24.40
2023-02-16T09:47:28.377Z,23.90
2023-02-16T09:48:28.429Z,23.90
2023-02-16T09:49:28.293Z,23.40
2023-02-16T09:50:52.261Z,22.90
2023-02-16T09:51:34.508Z,24.00
2023-02-16T09:52:28.290Z,23.60
2023-02-16T09:53:28.247Z,23.90
2023-02-16T09:54:28.261Z,24.40
2023-02-16T09:55:28.284Z,24.30
2023-02-16T09:56:28.360Z,25.40
2023-02-16T09:57:28.210Z,24.00
2023-02-16T09:58:28.219Z,24.10
2023-02-16T09:59:28.188Z,23.70
2023-02-16T10:00:28.206Z,24.60
2023-02-16T10:01:28.198Z,24.50
2023-02-16T10:02:28.227Z,24.40
2023-02-16T10:03:28.927Z,24.00
2023-02-16T10:04:28.163Z,24.00
2023-02-16T10:05:28.130Z,23.80
2023-02-16T10:06:28.130Z,23.50
2023-02-16T10:07:28.101Z,23.50
2023-02-16T10:08:28.129Z,24.50
2023-02-16T10:09:28.088Z,24.80
2023-02-16T10:10:28.089Z,23.30
2023-02-16T10:11:28.057Z,23.60
2023-02-16T10:12:28.069Z,24.00
2023-02-16T10:13:28.037Z,24.30
2023-02-16T10:14:28.065Z,23.80
2023-02-16T10:15:28.048Z,23.10
2023-02-16T10:16:28.028Z,22.70
2023-02-16T10:17:27.999Z,22.50
2023-02-16T10:18:28.014Z,23.20
2023-02-16T10:19:27.970Z,23.00
2023-02-16T10:20:28.008Z,22.20
2023-02-16T10:21:27.954Z,22.20
2023-02-16T10:22:27.976Z,21.20
2023-02-16T10:23:27.932Z,21.30
2023-02-16T10:24:27.943Z,22.40
2023-02-16T10:25:27.912Z,21.70
2023-02-16T10:26:28.352Z,21.50
2023-02-16T10:27:27.887Z,22.10
2023-02-16T10:28:27.911Z,22.50
2023-02-16T10:29:27.863Z,22.60
2023-02-16T10:30:27.922Z,23.30
2023-02-16T10:31:28.038Z,21.30
2023-02-16T10:32:27.890Z,21.20
2023-02-16T10:33:27.823Z,20.90
2023-02-16T10:34:27.836Z,21.60
2023-02-16T10:35:27.806Z,20.80
2023-02-16T10:36:27.833Z,20.50
2023-02-16T10:37:27.796Z,20.50
2023-02-16T10:38:27.812Z,20.80
2023-02-16T10:39:27.773Z,21.60
2023-02-16T10:40:27.779Z,20.90
2023-02-16T10:41:27.745Z,20.20
2023-02-16T10:42:27.760Z,20.40
2023-02-16T10:43:27.721Z,22.60
2023-02-16T10:44:27.746Z,20.50
2023-02-16T10:45:27.698Z,21.40
2023-02-16T10:46:27.773Z,20.10
2023-02-16T10:47:27.684Z,21.40
2023-02-16T10:48:27.694Z,20.80
2023-02-16T10:49:27.655Z,20.80
2023-02-16T10:50:27.699Z,21.30
2023-02-16T10:51:27.637Z,21.00
2023-02-16T10:52:27.648Z,21.50
2023-02-16T10:53:27.616Z,21.10
2023-02-16T10:54:27.628Z,20.80
2023-02-16T10:55:27.596Z,20.00
2023-02-16T10:56:27.622Z,21.00
2023-02-16T10:57:27.581Z,20.60
2023-02-16T10:58:27.584Z,21.20
2023-02-16T10:59:27.554Z,21.30
2023-02-16T11:00:27.564Z,20.50
2023-02-16T11:01:27.552Z,21.10
2023-02-16T11:02:27.558Z,21.70
2023-02-16T11:03:27.532Z,18.10
2023-02-16T11:04:27.543Z,20.80
2023-02-16T11:05:27.494Z,18.50
2023-02-16T11:06:27.506Z,17.50
2023-02-16T11:07:27.485Z,18.10
2023-02-16T11:08:29.209Z,17.50
2023-02-16T11:09:27.447Z,17.40
2023-02-16T11:10:27.462Z,18.30
2023-02-16T11:11:27.495Z,17.20
2023-02-16T11:12:27.438Z,17.50
2023-02-16T11:13:27.405Z,18.80
2023-02-16T11:14:27.428Z,17.70
2023-02-16T11:15:27.400Z,17.70
2023-02-16T11:16:27.392Z,18.00
2023-02-16T11:17:27.369Z,17.00
2023-02-16T11:18:27.388Z,17.90
2023-02-16T11:19:27.338Z,17.20
2023-02-16T11:20:27.376Z,17.20
2023-02-16T11:21:27.318Z,17.60
2023-02-16T11:22:27.329Z,17.70
2023-02-16T11:23:27.298Z,18.00
2023-02-16T11:24:27.322Z,17.40
2023-02-16T11:25:27.275Z,17.90
2023-02-16T11:26:27.313Z,17.80
2023-02-16T11:27:27.254Z,17.80
2023-02-16T11:28:27.270Z,17.50
2023-02-16T11:29:27.245Z,18.60
2023-02-16T11:30:27.342Z,19.10
2023-02-16T11:31:27.392Z,18.30
2023-02-16T11:32:27.252Z,19.10
2023-02-16T11:33:27.200Z,17.90
2023-02-16T11:34:27.212Z,19.10
2023-02-16T11:35:27.192Z,18.20
2023-02-16T11:36:27.185Z,18.40
2023-02-16T11:37:27.157Z,18.80
2023-02-16T11:38:27.223Z,18.90
2023-02-16T11:39:27.131Z,19.60
2023-02-16T11:40:27.139Z,17.90
2023-02-16T11:41:27.103Z,19.10
2023-02-16T11:42:27.126Z,19.70
2023-02-16T11:43:27.087Z,19.20
2023-02-16T11:44:27.177Z,19.20
2023-02-16T11:45:27.060Z,19.30
2023-02-16T11:46:27.139Z,18.80
2023-02-16T11:47:27.035Z,19.50
2023-02-16T11:48:27.052Z,19.40
2023-02-16T11:49:27.012Z,19.70
2023-02-16T11:50:27.061Z,19.30
2023-02-16T11:51:26.988Z,19.30
2023-02-16T11:52:27.005Z,19.00
2023-02-16T11:53:27.010Z,18.70
2023-02-16T11:54:26.993Z,19.70
2023-02-16T11:55:27.002Z,19.30
2023-02-16T11:56:26.983Z,19.30
2023-02-16T11:57:26.933Z,20.50
2023-02-16T11:58:26.942Z,19.00
2023-02-16T11:59:26.906Z,20.20
2023-02-16T12:00:26.932Z,19.30
2023-02-16T12:01:26.887Z,18.30
2023-02-16T12:02:26.938Z,19.70
2023-02-16T12:03:26.863Z,20.60
2023-02-16T12:04:26.875Z,19.80
2023-02-16T12:05:26.898Z,19.20
2023-02-16T12:06:26.866Z,19.70
2023-02-16T12:07:26.821Z,20.20
2023-02-16T12:08:26.855Z,20.80
2023-02-16T12:09:26.803Z,20.30
2023-02-16T12:10:26.813Z,21.00
2023-02-16T12:11:26.777Z,20.00
2023-02-16T12:12:26.804Z,21.10
2023-02-16T12:13:26.783Z,21.70
2023-02-16T12:14:26.792Z,20.40
2023-02-16T12:15:26.734Z,20.00
2023-02-16T12:16:26.809Z,20.70
2023-02-16T12:17:26.714Z,20.20
2023-02-16T12:18:26.726Z,20.60
2023-02-16T12:19:26.693Z,20.90
2023-02-16T12:20:26.733Z,21.00
2023-02-16T12:21:26.670Z,21.10
2023-02-16T12:22:26.684Z,19.50
2023-02-16T12:23:26.661Z,20.60
2023-02-16T12:24:26.660Z,22.20
2023-02-16T12:25:26.634Z,20.90
2023-02-16T12:26:26.745Z,20.20
2023-02-16T12:27:26.605Z,21.00
2023-02-16T12:28:26.618Z,21.30
2023-02-16T12:29:26.580Z,22.20
2023-02-16T12:30:26.632Z,21.10
2023-02-16T12:31:26.678Z,21.50
2023-02-16T12:32:26.610Z,21.10
2023-02-16T12:33:26.538Z,21.30
2023-02-16T12:34:26.548Z,21.70
2023-02-16T12:35:26.517Z,21.70
2023-02-16T12:36:26.530Z,21.90
2023-02-16T12:37:26.494Z,21.70
2023-02-16T12:38:26.540Z,22.30
2023-02-16T12:39:26.476Z,23.10
2023-02-16T12:40:26.494Z,22.80
2023-02-16T12:41:26.452Z,23.00
2023-02-16T12:42:26.463Z,25.90
2023-02-16T12:43:26.432Z,25.50
2023-02-16T12:44:26.455Z,23.40
2023-02-16T12:45:26.471Z,23.20
2023-02-16T12:46:26.422Z,23.40
2023-02-16T12:47:26.389Z,23.40
2023-02-16T12:48:26.492Z,22.30
2023-02-16T12:49:26.363Z,22.60
2023-02-16T12:50:26.465Z,24.00
2023-02-16T12:51:26.349Z,23.30
2023-02-16T12:52:26.355Z,23.60